createdAt,value
2023-01-26T00:00:45.146Z,0.50
2023-01-26T00:03:47.386Z,0.60
2023-01-26T00:06:49.047Z,0.50
2023-01-26T00:09:50.599Z,0.50
2023-01-26T00:12:52.239Z,0.65
2023-01-26T00:15:53.799Z,0.60
2023-01-26T00:18:55.468Z,0.40
2023-01-26T00:21:57.006Z,0.52
2023-01-26T00:24:58.553Z,0.50
2023-01-26T00:28:00.105Z,0.47
2023-01-26T00:31:07.100Z,0.73
2023-01-26T00:34:08.696Z,0.63
2023-01-26T00:37:10.274Z,0.47
2023-01-26T00:40:12.322Z,0.90
2023-01-26T00:43:14.256Z,0.40
2023-01-26T00:46:15.844Z,0.45
2023-01-26T00:49:17.385Z,0.45
2023-01-26T00:52:18.995Z,0.52
2023-01-26T00:55:20.585Z,0.50
2023-01-26T00:58:22.138Z,0.50
2023-01-26T01:01:23.681Z,0.55
2023-01-26T01:04:26.004Z,0.50
2023-01-26T01:07:27.606Z,0.47
2023-01-26T01:10:29.588Z,0.50
2023-01-26T01:13:31.137Z,0.50
2023-01-26T01:16:32.649Z,0.50
2023-01-26T01:19:34.206Z,0.40
2023-01-26T01:22:36.682Z,0.50
2023-01-26T01:25:38.221Z,0.57
2023-01-26T01:28:40.097Z,0.50
2023-01-26T01:31:43.317Z,0.50
2023-01-26T01:34:47.471Z,0.50
2023-01-26T01:37:49.015Z,0.38
2023-01-26T01:40:51.007Z,0.52
2023-01-26T01:44:11.682Z,0.45
2023-01-26T01:47:23.278Z,0.35
2023-01-26T01:50:26.190Z,0.50
2023-01-26T01:53:33.744Z,0.45
2023-01-26T01:56:38.222Z,0.60
2023-01-26T01:59:39.945Z,0.40
2023-01-26T02:02:44.687Z,0.45
2023-01-26T02:05:49.310Z,0.55
2023-01-26T02:08:53.819Z,0.55
2023-01-26T02:11:56.790Z,0.50
2023-01-26T02:14:58.520Z,0.60
2023-01-26T02:18:04.925Z,0.40
2023-01-26T02:21:09.170Z,0.40
2023-01-26T02:24:34.749Z,0.40
2023-01-26T02:27:37.372Z,0.50
2023-01-26T02:30:39.152Z,0.50
2023-01-26T02:33:41.995Z,0.40
2023-01-26T02:36:43.528Z,0.30
2023-01-26T02:39:54.751Z,0.40
2023-01-26T02:42:56.282Z,0.30
2023-01-26T02:45:58.184Z,0.32
2023-01-26T02:49:18.122Z,0.43
2023-01-26T02:52:28.609Z,0.40
2023-01-26T02:55:30.466Z,0.30
2023-01-26T02:58:32.098Z,0.50
2023-01-26T03:01:33.649Z,0.28
2023-01-26T03:04:35.214Z,0.35
2023-01-26T03:07:36.795Z,0.40
2023-01-26T03:10:39.620Z,0.22
2023-01-26T03:13:41.158Z,0.47
2023-01-26T03:16:42.737Z,0.50
2023-01-26T03:20:03.261Z,0.40
2023-01-26T03:23:23.147Z,0.40
2023-01-26T03:26:43.559Z,0.55
2023-01-26T03:29:45.763Z,0.45
2023-01-26T03:32:47.364Z,0.35
2023-01-26T03:35:48.929Z,0.30
2023-01-26T03:38:50.453Z,0.30
2023-01-26T03:42:10.354Z,0.40
2023-01-26T03:45:30.513Z,0.38
2023-01-26T03:48:50.387Z,0.35
2023-01-26T03:52:10.729Z,0.40
2023-01-26T03:55:31.235Z,0.32
2023-01-26T03:58:32.804Z,0.40
2023-01-26T04:01:39.762Z,0.40
2023-01-26T04:04:59.684Z,0.30
2023-01-26T04:08:23.636Z,0.30
2023-01-26T04:11:25.193Z,0.47
2023-01-26T04:14:49.931Z,0.30
2023-01-26T04:18:10.633Z,0.30
2023-01-26T04:21:28.144Z,0.30
2023-01-26T04:24:29.706Z,0.40
2023-01-26T04:27:34.976Z,0.32
2023-01-26T04:30:36.634Z,0.35
2023-01-26T04:33:38.164Z,0.40
2023-01-26T04:36:40.667Z,0.50
2023-01-26T04:39:42.192Z,0.30
2023-01-26T04:42:43.818Z,0.30
2023-01-26T04:45:45.363Z,0.30
2023-01-26T04:48:46.949Z,0.32
2023-01-26T04:51:48.651Z,0.30
2023-01-26T04:54:51.111Z,0.30
2023-01-26T04:57:52.677Z,0.20
2023-01-26T05:00:56.136Z,0.30
2023-01-26T05:04:03.440Z,0.20
2023-01-26T05:07:05.224Z,0.30
2023-01-26T05:10:07.113Z,0.30
2023-01-26T05:13:09.455Z,0.40
2023-01-26T05:16:14.023Z,0.30
2023-01-26T05:19:16.410Z,0.30
2023-01-26T05:22:17.977Z,0.30
2023-01-26T05:25:19.851Z,0.20
2023-01-26T05:28:21.395Z,0.20
2023-01-26T05:31:23.015Z,0.22
2023-01-26T05:34:24.633Z,0.30
2023-01-26T05:37:28.130Z,0.20
2023-01-26T05:40:29.847Z,0.20
2023-01-26T05:43:31.460Z,0.60
2023-01-26T05:46:32.983Z,0.50
2023-01-26T05:49:34.851Z,0.35
2023-01-26T05:52:36.407Z,0.30
2023-01-26T05:55:37.983Z,0.30
2023-01-26T05:58:39.677Z,0.30
2023-01-26T06:01:41.242Z,0.20
2023-01-26T06:04:42.856Z,0.28
2023-01-26T06:07:44.408Z,0.20
2023-01-26T06:10:45.972Z,0.30
2023-01-26T06:13:48.755Z,0.30
2023-01-26T06:16:50.644Z,0.30
2023-01-26T06:19:52.224Z,0.22
2023-01-26T06:22:53.788Z,0.30
2023-01-26T06:26:00.128Z,0.20
2023-01-26T06:29:01.718Z,0.30
2023-01-26T06:32:03.338Z,0.30
2023-01-26T06:35:06.714Z,0.30
2023-01-26T06:38:08.276Z,0.30
2023-01-26T06:41:10.457Z,0.28
2023-01-26T06:44:12.425Z,0.20
2023-01-26T06:47:14.953Z,0.20
2023-01-26T06:50:19.934Z,0.40
2023-01-26T06:53:33.578Z,0.20
2023-01-26T06:56:35.530Z,0.25
2023-01-26T06:59:37.708Z,0.30
2023-01-26T07:02:39.873Z,0.47
2023-01-26T07:05:41.605Z,0.60
2023-01-26T07:08:43.217Z,0.40
2023-01-26T07:11:44.746Z,0.28
2023-01-26T07:14:46.799Z,0.30
2023-01-26T07:17:48.381Z,0.30
2023-01-26T07:20:49.957Z,0.30
2023-01-26T07:23:52.364Z,0.30
2023-01-26T07:26:53.963Z,0.20
2023-01-26T07:29:55.515Z,0.20
2023-01-26T07:32:59.764Z,0.20
2023-01-26T07:36:01.836Z,0.30
2023-01-26T07:39:04.141Z,0.20
2023-01-26T07:42:06.613Z,0.20
2023-01-26T07:45:08.648Z,0.20
2023-01-26T07:48:10.538Z,0.20
2023-01-26T07:51:12.157Z,0.30
2023-01-26T07:54:13.683Z,0.30
2023-01-26T07:57:15.231Z,0.22
2023-01-26T08:00:17.976Z,0.30
2023-01-26T08:03:19.488Z,0.20
2023-01-26T08:06:21.809Z,0.38
2023-01-26T08:09:24.777Z,0.25
2023-01-26T08:12:26.379Z,0.22
2023-01-26T08:15:28.963Z,0.30
2023-01-26T08:18:31.077Z,0.63
2023-01-26T08:21:32.595Z,0.40
2023-01-26T08:24:34.191Z,0.40
2023-01-26T08:27:35.742Z,0.22
2023-01-26T08:30:37.339Z,0.30
2023-01-26T08:33:40.934Z,0.30
2023-01-26T08:36:42.563Z,0.22
2023-01-26T08:39:44.121Z,0.30
2023-01-26T08:42:45.638Z,0.40
2023-01-26T08:45:47.606Z,0.20
2023-01-26T08:48:49.182Z,0.28
2023-01-26T08:51:50.681Z,0.30
2023-01-26T08:54:52.242Z,0.30
2023-01-26T08:57:55.219Z,0.30
2023-01-26T09:00:57.136Z,0.50
2023-01-26T09:03:58.783Z,0.20
2023-01-26T09:07:00.288Z,0.20
2023-01-26T09:10:02.106Z,0.30
2023-01-26T09:13:03.678Z,0.30
2023-01-26T09:16:06.844Z,0.38
2023-01-26T09:19:08.437Z,0.25
2023-01-26T09:22:10.143Z,0.25
2023-01-26T09:25:12.279Z,0.40
2023-01-26T09:28:14.151Z,0.32
2023-01-26T09:31:15.791Z,0.47
2023-01-26T09:34:17.435Z,0.40
2023-01-26T09:37:19.100Z,0.30
2023-01-26T09:40:39.783Z,0.30
2023-01-26T09:43:51.714Z,0.40
2023-01-26T09:47:42.519Z,0.30
2023-01-26T09:51:07.446Z,0.40
2023-01-26T09:54:32.097Z,0.30
2023-01-26T09:57:49.283Z,0.30
2023-01-26T10:00:55.735Z,0.20
2023-01-26T10:04:15.610Z,0.30
2023-01-26T10:07:17.316Z,0.40
2023-01-26T10:10:30.893Z,0.30
2023-01-26T10:13:34.214Z,0.40
2023-01-26T10:16:35.736Z,0.22
2023-01-26T10:19:45.083Z,0.40
2023-01-26T10:22:50.692Z,0.30
2023-01-26T10:25:54.339Z,0.30
2023-01-26T10:28:55.921Z,0.30
2023-01-26T10:31:57.512Z,0.30
2023-01-26T10:34:59.176Z,0.30
2023-01-26T10:38:00.789Z,0.28
2023-01-26T10:41:17.030Z,0.20
2023-01-26T10:44:39.136Z,0.43
2023-01-26T10:47:40.687Z,0.28
2023-01-26T10:50:42.486Z,0.30
2023-01-26T10:53:44.006Z,0.22
2023-01-26T10:56:52.050Z,0.20
2023-01-26T11:00:08.478Z,0.30
2023-01-26T11:03:19.264Z,0.40
2023-01-26T11:06:21.400Z,0.28
2023-01-26T11:09:27.533Z,0.20
2023-01-26T11:12:29.627Z,0.30
2023-01-26T11:15:36.794Z,0.32
2023-01-26T11:18:54.227Z,0.40
2023-01-26T11:21:59.821Z,0.20
2023-01-26T11:25:18.923Z,0.30
2023-01-26T11:28:45.011Z,0.30
2023-01-26T11:32:04.626Z,0.30
2023-01-26T11:35:22.272Z,0.30
2023-01-26T11:38:23.775Z,0.30
2023-01-26T11:41:33.181Z,0.28
2023-01-26T11:44:45.127Z,0.30
2023-01-26T11:48:00.929Z,0.30
2023-01-26T11:51:14.586Z,0.30
2023-01-26T11:54:32.191Z,0.30
2023-01-26T11:57:41.522Z,0.28
2023-01-26T12:00:47.625Z,0.20
2023-01-26T12:03:52.441Z,0.22
2023-01-26T12:07:51.300Z,0.20
2023-01-26T12:11:23.719Z,0.30
2023-01-26T12:14:37.156Z,0.22
2023-01-26T12:17:56.921Z,0.20
2023-01-26T12:21:07.020Z,0.17
2023-01-26T12:24:39.134Z,0.28
2023-01-26T12:27:45.126Z,0.20
2023-01-26T12:30:46.738Z,0.20
2023-01-26T12:33:52.539Z,0.20
2023-01-26T12:37:03.136Z,0.20
2023-01-26T12:40:05.926Z,0.28
2023-01-26T12:43:32.466Z,0.20
2023-01-26T12:46:38.265Z,0.20
2023-01-26T12:49:57.203Z,0.20
2023-01-26T12:53:21.567Z,0.20
2023-01-26T12:56:35.123Z,0.20
2023-01-26T12:59:48.197Z,0.20
2023-01-26T13:02:56.810Z,0.20
2023-01-26T13:06:18.978Z,0.20
2023-01-26T13:09:26.145Z,0.10
2023-01-26T13:12:54.977Z,0.20
2023-01-26T13:16:16.853Z,0.10
2023-01-26T13:19:52.655Z,0.20
2023-01-26T13:22:55.081Z,0.10
2023-01-26T13:26:32.041Z,0.20
2023-01-26T13:29:34.636Z,0.20
2023-01-26T13:32:36.160Z,0.20
2023-01-26T13:35:39.004Z,0.20
2023-01-26T13:38:44.175Z,0.30
2023-01-26T13:41:47.835Z,0.20
2023-01-26T13:45:03.435Z,0.20
2023-01-26T13:48:14.594Z,0.20
2023-01-26T13:51:30.841Z,0.20
2023-01-26T13:54:32.946Z,0.20
2023-01-26T13:57:34.520Z,0.20
2023-01-26T14:00:36.033Z,0.20
2023-01-26T14:03:37.796Z,0.20
2023-01-26T14:06:41.459Z,0.20
2023-01-26T14:10:02.525Z,0.20
2023-01-26T14:13:04.864Z,0.20
2023-01-26T14:16:07.857Z,0.20
2023-01-26T14:19:09.407Z,0.10
2023-01-26T14:22:12.934Z,0.20
2023-01-26T14:25:19.679Z,0.10
2023-01-26T14:28:23.102Z,0.10
2023-01-26T14:31:27.050Z,0.20
2023-01-26T14:34:30.807Z,0.10
2023-01-26T14:37:32.390Z,0.10
2023-01-26T14:40:33.983Z,0.17
2023-01-26T14:43:35.560Z,0.20
2023-01-26T14:46:43.086Z,0.15
2023-01-26T14:49:44.637Z,0.20
2023-01-26T14:52:46.741Z,0.10
2023-01-26T14:55:49.995Z,0.10
2023-01-26T14:58:54.448Z,0.20
2023-01-26T15:02:26.544Z,0.10
2023-01-26T15:05:36.890Z,0.10
2023-01-26T15:08:40.595Z,0.20
2023-01-26T15:12:01.444Z,0.10
2023-01-26T15:15:03.255Z,0.20
2023-01-26T15:18:13.896Z,0.10
2023-01-26T15:21:20.785Z,0.10
2023-01-26T15:24:22.434Z,0.10
2023-01-26T15:27:24.130Z,0.20
2023-01-26T15:30:36.128Z,0.13
2023-01-26T15:33:44.666Z,0.20
2023-01-26T15:36:50.762Z,0.17
2023-01-26T15:39:52.576Z,0.20
2023-01-26T15:43:13.782Z,0.10
2023-01-26T15:46:15.366Z,0.17
2023-01-26T15:49:19.983Z,0.10
2023-01-26T15:52:25.803Z,0.20
2023-01-26T15:55:31.595Z,0.20
2023-01-26T15:58:35.109Z,0.20
2023-01-26T16:01:36.857Z,0.20
2023-01-26T16:04:38.428Z,0.10
2023-01-26T16:07:39.941Z,0.20
2023-01-26T16:10:42.042Z,0.15
2023-01-26T16:13:53.989Z,0.10
2023-01-26T16:17:06.272Z,0.13
2023-01-26T16:20:09.927Z,0.20
2023-01-26T16:23:31.972Z,0.10
2023-01-26T16:26:33.572Z,0.10
2023-01-26T16:29:35.639Z,0.10
2023-01-26T16:32:37.179Z,0.10
2023-01-26T16:35:38.824Z,0.10
2023-01-26T16:38:41.190Z,0.10
2023-01-26T16:41:42.772Z,0.20
2023-01-26T16:44:45.356Z,0.20
2023-01-26T16:47:52.439Z,0.20
2023-01-26T16:50:54.826Z,0.20
2023-01-26T16:53:57.011Z,0.10
2023-01-26T16:56:58.690Z,0.20
2023-01-26T17:00:00.225Z,0.20
2023-01-26T17:03:01.820Z,0.20
2023-01-26T17:06:03.506Z,0.10
2023-01-26T17:09:05.145Z,0.17
2023-01-26T17:12:07.681Z,0.20
2023-01-26T17:15:12.108Z,0.13
2023-01-26T17:18:13.986Z,0.10
2023-01-26T17:21:17.288Z,0.13
2023-01-26T17:24:18.914Z,0.13
2023-01-26T17:27:20.504Z,0.10
2023-01-26T17:30:22.302Z,0.20
2023-01-26T17:33:23.907Z,0.15
2023-01-26T17:36:25.460Z,0.20
2023-01-26T17:39:27.374Z,0.10
2023-01-26T17:42:30.145Z,0.10
2023-01-26T17:45:31.762Z,0.10
2023-01-26T17:48:34.584Z,0.15
2023-01-26T17:51:36.321Z,0.28
2023-01-26T17:54:37.912Z,0.10
2023-01-26T17:57:39.458Z,0.20
2023-01-26T18:00:40.996Z,0.10
2023-01-26T18:03:43.314Z,0.15
2023-01-26T18:06:45.331Z,0.10
2023-01-26T18:09:46.945Z,0.20
2023-01-26T18:12:49.854Z,0.17
2023-01-26T18:15:52.355Z,0.10
2023-01-26T18:18:55.908Z,0.10
2023-01-26T18:21:57.746Z,0.20
2023-01-26T18:24:59.281Z,0.22
2023-01-26T18:28:01.051Z,0.17
2023-01-26T18:31:14.623Z,0.20
2023-01-26T18:34:16.174Z,0.15
2023-01-26T18:37:17.837Z,0.20
2023-01-26T18:40:19.930Z,0.10
2023-01-26T18:43:21.421Z,0.13
2023-01-26T18:46:23.187Z,0.20
2023-01-26T18:49:24.829Z,0.20
2023-01-26T18:52:26.468Z,0.20
2023-01-26T18:55:28.090Z,0.28
2023-01-26T18:58:32.005Z,0.15
2023-01-26T19:01:33.923Z,0.38
2023-01-26T19:04:35.446Z,0.20
2023-01-26T19:07:36.998Z,0.30
2023-01-26T19:10:39.471Z,0.38
2023-01-26T19:13:43.251Z,0.20
2023-01-26T19:16:47.708Z,0.30
2023-01-26T19:19:49.455Z,0.22
2023-01-26T19:22:54.157Z,0.30
2023-01-26T19:25:56.172Z,0.20
2023-01-26T19:28:58.431Z,0.20
2023-01-26T19:32:00.019Z,0.20
2023-01-26T19:35:01.610Z,0.13
2023-01-26T19:38:03.689Z,0.20
2023-01-26T19:41:05.620Z,0.20
2023-01-26T19:44:07.759Z,0.20
2023-01-26T19:47:09.323Z,0.20
2023-01-26T19:50:11.134Z,0.20
2023-01-26T19:53:12.720Z,0.30
2023-01-26T19:56:17.417Z,0.20
2023-01-26T19:59:19.051Z,0.25
2023-01-26T20:02:20.727Z,0.20
2023-01-26T20:05:22.282Z,0.20
2023-01-26T20:08:24.993Z,0.22
2023-01-26T20:11:29.687Z,0.20
2023-01-26T20:14:31.476Z,0.30
2023-01-26T20:17:33.027Z,0.30
2023-01-26T20:20:35.005Z,0.20
2023-01-26T20:23:36.844Z,0.20
2023-01-26T20:26:38.522Z,0.25
2023-01-26T20:29:40.068Z,0.20
2023-01-26T20:32:41.661Z,0.40
2023-01-26T20:35:43.746Z,0.30
2023-01-26T20:38:47.410Z,0.20
2023-01-26T20:41:49.045Z,0.20
2023-01-26T20:44:50.896Z,0.20
2023-01-26T20:47:53.083Z,0.35
2023-01-26T20:50:54.869Z,0.20
2023-01-26T20:53:57.727Z,0.20
2023-01-26T20:56:59.446Z,0.40
2023-01-26T21:00:01.177Z,0.30
2023-01-26T21:03:03.026Z,0.20
2023-01-26T21:06:05.565Z,0.30
2023-01-26T21:09:07.572Z,0.30
2023-01-26T21:12:09.136Z,0.20
2023-01-26T21:15:11.069Z,0.32
2023-01-26T21:18:12.677Z,0.30
2023-01-26T21:21:18.914Z,0.28
2023-01-26T21:24:20.582Z,0.30
2023-01-26T21:27:22.144Z,0.30
2023-01-26T21:30:24.004Z,0.40
2023-01-26T21:33:25.561Z,0.30
2023-01-26T21:36:31.081Z,0.40
2023-01-26T21:39:32.675Z,0.40
2023-01-26T21:42:34.268Z,0.30
2023-01-26T21:45:53.709Z,0.20
2023-01-26T21:48:55.269Z,0.40
2023-01-26T21:52:15.435Z,0.40
2023-01-26T21:55:17.058Z,0.32
2023-01-26T21:58:37.325Z,0.40
2023-01-26T22:01:42.219Z,0.30
2023-01-26T22:04:43.806Z,0.20
2023-01-26T22:07:45.328Z,0.20
2023-01-26T22:10:53.665Z,0.28
2023-01-26T22:13:55.336Z,0.30
2023-01-26T22:16:56.902Z,0.30
2023-01-26T22:19:59.530Z,0.30
2023-01-26T22:23:01.761Z,0.40
2023-01-26T22:26:12.942Z,0.40
2023-01-26T22:29:14.680Z,0.30
2023-01-26T22:32:16.233Z,0.20
2023-01-26T22:35:17.816Z,0.20
2023-01-26T22:38:19.436Z,0.30
2023-01-26T22:41:24.289Z,0.30
2023-01-26T22:44:26.055Z,0.20
2023-01-26T22:47:28.314Z,0.30
2023-01-26T22:50:29.872Z,0.25
2023-01-26T22:53:31.443Z,0.32
2023-01-26T22:56:33.631Z,0.35
2023-01-26T22:59:35.262Z,0.57
2023-01-26T23:02:36.789Z,0.50
2023-01-26T23:05:38.397Z,0.40
2023-01-26T23:08:40.456Z,0.35
2023-01-26T23:11:42.003Z,0.30
2023-01-26T23:14:43.542Z,0.40
2023-01-26T23:17:45.126Z,0.50
2023-01-26T23:20:47.475Z,0.40
2023-01-26T23:23:49.194Z,0.30
2023-01-26T23:26:50.827Z,0.30
2023-01-26T23:29:52.376Z,0.30
2023-01-26T23:32:53.940Z,0.40
2023-01-26T23:35:55.822Z,0.40
2023-01-26T23:38:57.332Z,0.30
2023-01-26T23:41:58.875Z,0.20
2023-01-26T23:45:00.412Z,0.20
2023-01-26T23:48:02.180Z,0.25
2023-01-26T23:51:11.778Z,0.30
2023-01-26T23:54:13.291Z,0.20
2023-01-26T23:57:14.882Z,0.20
